Norfolk Island International Airport
YSNF : now visible

Airfield :











YOU CAN JOIN US ON...

 
LOGIN :

Register | Disclaimer

   EN    FR    IT 

 









Legend :    VFR   Marginal VFR   IFR   Intensive IFR   Very Intensive IFR
Visi :
Ceiling :
>= 8 km
>= 3000ft
5 to 8 km
1000 to 3000 ft
1500m to 5 km
500 to 1000 ft
800 to 1500m
200 to 500 ft
< 800m
< 200 ft
Symbols :   Thunderstorms  Fog  Heavy snow  Heavy precipitations  Wind > 20 kt






- Airport Elevation : 371 ft
- IATA code : NLK


YSNF - Norfolk Island International

CURRENT METAR :
  • 171200Z AUTO 17010KT 9999 // NCD 22/18 Q1014 RF00.0/000.4

EXPIRED METARs :
  • 171130Z AUTO 17009KT 9999 // SCT019 22/18 Q1014 RF00.0/000.4
  • 171107Z AUTO 18010KT 9999 // BKN015 BKN020 22/19 Q1014
  • 171030Z AUTO 18009KT 9999 -SHRA BKN010 22/20 Q1013 RF00.0/000.4
  • 171000Z AUTO 19006KT 9999 // NCD 22/19 Q1013
  • 170930Z AUTO 19006KT 9999 -SHRA NCD 22/19 Q1013 RF00.0/000.4

TAF AMD TAF YSNF
Valid from the 17 at 11:00 until the 18 at 12:00 UTC


171111Z 1711/1812 16010KT 9999 -SHRA SCT010 BKN015
BECMG 1713/1715 18008KT 9999 -SHRA FEW020 BKN030
FM172100 16012KT 9999 NSW SCT020 SCT030
TEMPO 1712/1718 8000 SHRA BKN010
NZZO FIR / Oceania



MET'MAP, your aeronautical weather chart ! - Copyright ORBIFLY December 2007 - Disclaimer

ORBIFLY MET'MAP TEAM :

Programming & Development : Alexandra Zaïnal
Concept & original design : Baudouin d'Aumeries
Assistance for programming : Marc-Olivier Méhu
Technical & hardware support : Manuel Goepfert

Contact : metmap@orbifly.com




SOURCES & CREDITS :

   NOAA       Earth
Advisory